Startpagina
METAR-TAF:

METAR-TAF

Vliegvelden :

Vliegveld de Kooy

Den Helder, Nederland

breedte: 52-55N, lengte: 004-47E, hoogte: 0 m

Actueel weer

Dit bericht is 15 minuten geleden gemaakt, om 02:45 UTC
Wind 3 kt uit het oosten
Temperatuur 17°C
Vochtigheid 100%
Druk 1019 hPa
Zicht: 0800 m
mist

METAR: EHKD 260245Z AUTO 08003KT 0800 FG NCD 17/17 Q1019 AMB

Tijdstip: 05:00 (03:00 UTC)

Verwachting

Dit bericht is 2 uur en het 35 minuten geleden gemaakt, om 00:25 UTC
Verwachting geldig van 26 om 01 UTC tot 26 om 13 UTC
Wind 6 kt uit het oostnoordoosten
Zicht: 8000 m
Kans 30% :
Tijdelijke
van 26 om 01 UTC tot 26 om 05 UTC
Zicht: 3000 m
Ondiepe mist, nevel

TAF: EHKD 260025Z 2601/2613 06006KT 8000 NSC PROB30 TEMPO 2601/2605 3000 MIFG BR

Waarnemingen en weersverwachtingen van meer dan 4000 vliegvelden (METAR en TAF).

De beschikbare stations zijn de gele en rode punten op de kaart.

Ga met uw muis naar het station om de naam te zien.

Klik dan om waarnemingen en weersverwachtingen te zien.

kaart wijzigen: klik op de groene knoppen met een zwart kruis om in te zoomen, op de groene knop met een streepje om uit te zoomen of op de groene pijlen voor aangrenzende kaarten.


METAR-TAF: